AAL2654 KLAX-KRDU
Flight info
| Callsign | AAL2654 |
|---|---|
| Flight time | N/A |
| Altitude | 35000 |
| Route | DOTSS2 CNERY BLH ANGRY MAXXO TCC PER SGF KK45I TWRAY J98 FAM PLESS PXV FRIKY ALDAN4 |
| Aircraft | B738/M-SDE2E3FGHIRWXY/LB1 |
Departure
| Time | 2026-05-06 19:20 |
|---|---|
| Airport | Los Angeles International Airport (KLAX) |
Arrival
| Time | N/A |
|---|---|
| Airport | Raleigh-Durham International Airport (KRDU) |
| Time | Latitude | Longitude | Altitude | Speed | Heading |
|---|---|---|---|---|---|
| 2026-05-06 18:09 | 33.93963 | -118.40930 | 110 ft | 0 kts | 290° |
| 2026-05-06 19:09 | 33.93962 | -118.40928 | 95 ft | 2 kts | 290° |
| 2026-05-06 19:09 | 33.93953 | -118.40899 | 95 ft | 4 kts | 290° |
| 2026-05-06 19:10 | 33.93944 | -118.40868 | 95 ft | 4 kts | 289° |
| 2026-05-06 19:10 | 33.93938 | -118.40837 | 96 ft | 4 kts | 266° |
| 2026-05-06 19:10 | 33.93944 | -118.40816 | 94 ft | 4 kts | 192° |
| 2026-05-06 19:10 | 33.93954 | -118.40816 | 95 ft | 1 kts | 173° |
| 2026-05-06 19:14 | 33.93942 | -118.40814 | 94 ft | 6 kts | 173° |
| 2026-05-06 19:14 | 33.93897 | -118.40796 | 97 ft | 7 kts | 139° |
| 2026-05-06 19:14 | 33.93875 | -118.40768 | 98 ft | 7 kts | 132° |
| 2026-05-06 19:14 | 33.93837 | -118.40729 | 99 ft | 8 kts | 137° |
| 2026-05-06 19:15 | 33.93816 | -118.40691 | 101 ft | 10 kts | 106° |
| 2026-05-06 19:15 | 33.93820 | -118.40574 | 102 ft | 19 kts | 83° |
| 2026-05-06 19:15 | 33.93845 | -118.40328 | 103 ft | 23 kts | 83° |
| 2026-05-06 19:15 | 33.93867 | -118.40115 | 103 ft | 27 kts | 83° |
| 2026-05-06 19:16 | 33.93882 | -118.39965 | 103 ft | 27 kts | 83° |
| 2026-05-06 19:16 | 33.93907 | -118.39715 | 102 ft | 32 kts | 83° |
| 2026-05-06 19:16 | 33.93936 | -118.39445 | 101 ft | 33 kts | 82° |
| 2026-05-06 19:16 | 33.93965 | -118.39164 | 100 ft | 33 kts | 83° |
| 2026-05-06 19:17 | 33.93992 | -118.38900 | 101 ft | 31 kts | 83° |
| 2026-05-06 19:17 | 33.94017 | -118.38653 | 101 ft | 29 kts | 83° |
| 2026-05-06 19:17 | 33.94040 | -118.38421 | 102 ft | 27 kts | 83° |
| 2026-05-06 19:17 | 33.94060 | -118.38201 | 103 ft | 25 kts | 82° |
| 2026-05-06 19:18 | 33.94071 | -118.38108 | 102 ft | 10 kts | 83° |
| 2026-05-06 19:18 | 33.94077 | -118.38045 | 102 ft | 2 kts | 84° |
| 2026-05-06 19:18 | 33.94076 | -118.38030 | 102 ft | 3 kts | 102° |
| 2026-05-06 19:18 | 33.94047 | -118.38001 | 105 ft | 6 kts | 163° |
| 2026-05-06 19:19 | 33.94005 | -118.38002 | 108 ft | 6 kts | 197° |
| 2026-05-06 19:19 | 33.93984 | -118.38048 | 109 ft | 8 kts | 261° |
| 2026-05-06 19:19 | 33.93966 | -118.38206 | 109 ft | 46 kts | 263° |
| 2026-05-06 19:19 | 33.93896 | -118.38878 | 104 ft | 114 kts | 263° |
| 2026-05-06 19:20 | 33.93773 | -118.40049 | 128 ft | 166 kts | 261° |
| 2026-05-06 19:20 | 33.93619 | -118.41495 | 653 ft | 178 kts | 262° |
| 2026-05-06 19:20 | 33.93464 | -118.43026 | 1415 ft | 187 kts | 262° |
| 2026-05-06 19:20 | 33.93304 | -118.44599 | 2411 ft | 189 kts | 263° |
| 2026-05-06 19:21 | 33.92997 | -118.46184 | 2964 ft | 210 kts | 240° |
| 2026-05-06 19:21 | 33.92049 | -118.47647 | 3210 ft | 234 kts | 232° |
| 2026-05-06 19:21 | 33.90965 | -118.49253 | 3471 ft | 262 kts | 232° |
| 2026-05-06 19:21 | 33.89760 | -118.50971 | 4134 ft | 271 kts | 231° |
| 2026-05-06 19:22 | 33.88526 | -118.52715 | 4959 ft | 276 kts | 231° |
| 2026-05-06 19:22 | 33.87277 | -118.54458 | 5726 ft | 281 kts | 226° |
| 2026-05-06 19:22 | 33.85617 | -118.55718 | 6502 ft | 288 kts | 197° |
| 2026-05-06 19:22 | 33.83625 | -118.55893 | 7245 ft | 291 kts | 170° |
| 2026-05-06 19:23 | 33.81633 | -118.55393 | 7992 ft | 294 kts | 165° |
| 2026-05-06 19:23 | 33.79636 | -118.54812 | 8745 ft | 297 kts | 164° |
| 2026-05-06 19:23 | 33.77610 | -118.54231 | 9519 ft | 300 kts | 164° |
| 2026-05-06 19:23 | 33.75556 | -118.53662 | 10253 ft | 305 kts | 165° |
| 2026-05-06 19:24 | 33.73422 | -118.53078 | 10528 ft | 327 kts | 165° |
| 2026-05-06 19:24 | 33.71204 | -118.52201 | 10676 ft | 346 kts | 147° |
| 2026-05-06 19:24 | 33.69368 | -118.50281 | 10836 ft | 359 kts | 123° |
| 2026-05-06 19:24 | 33.68261 | -118.47556 | 11067 ft | 370 kts | 106° |
| 2026-05-06 19:25 | 33.67428 | -118.44576 | 11449 ft | 381 kts | 105° |
| 2026-05-06 19:25 | 33.66593 | -118.41576 | 12003 ft | 386 kts | 106° |
| 2026-05-06 19:25 | 33.65709 | -118.38518 | 12643 ft | 388 kts | 106° |
| 2026-05-06 19:25 | 33.64807 | -118.35440 | 13249 ft | 392 kts | 104° |
| 2026-05-06 19:26 | 33.64333 | -118.32246 | 13801 ft | 389 kts | 87° |
| 2026-05-06 19:26 | 33.64377 | -118.28993 | 14373 ft | 391 kts | 86° |
| 2026-05-06 19:26 | 33.64420 | -118.25720 | 14934 ft | 393 kts | 86° |
| 2026-05-06 19:26 | 33.64447 | -118.22433 | 15490 ft | 395 kts | 86° |
| 2026-05-06 19:27 | 33.64461 | -118.19120 | 16018 ft | 398 kts | 86° |
| 2026-05-06 19:27 | 33.64467 | -118.15786 | 16529 ft | 401 kts | 87° |
| 2026-05-06 19:27 | 33.64468 | -118.12430 | 17067 ft | 403 kts | 87° |
| 2026-05-06 19:27 | 33.64466 | -118.09050 | 17596 ft | 405 kts | 87° |
| 2026-05-06 19:28 | 33.64463 | -118.05657 | 18122 ft | 408 kts | 87° |
| 2026-05-06 19:28 | 33.64459 | -118.02244 | 18624 ft | 410 kts | 87° |
| 2026-05-06 19:28 | 33.64454 | -117.98807 | 19040 ft | 413 kts | 87° |
| 2026-05-06 19:28 | 33.64449 | -117.95347 | 19476 ft | 416 kts | 87° |
| 2026-05-06 19:29 | 33.64442 | -117.91872 | 19909 ft | 418 kts | 87° |
| 2026-05-06 19:29 | 33.64435 | -117.88372 | 20339 ft | 420 kts | 87° |
| 2026-05-06 19:29 | 33.64427 | -117.84889 | 20758 ft | 423 kts | 87° |
| 2026-05-06 19:29 | 33.64417 | -117.81348 | 21177 ft | 425 kts | 87° |
| 2026-05-06 19:30 | 33.64117 | -117.77796 | 21560 ft | 434 kts | 101° |
| 2026-05-06 19:30 | 33.63226 | -117.74308 | 21981 ft | 438 kts | 103° |
| 2026-05-06 19:30 | 33.62314 | -117.70811 | 22354 ft | 440 kts | 103° |
| 2026-05-06 19:30 | 33.61418 | -117.67296 | 22719 ft | 442 kts | 103° |
| 2026-05-06 19:31 | 33.60527 | -117.63746 | 23066 ft | 445 kts | 103° |
| 2026-05-06 19:31 | 33.59642 | -117.60178 | 23390 ft | 448 kts | 102° |
| 2026-05-06 19:31 | 33.57872 | -117.53015 | 24024 ft | 452 kts | 102° |
| 2026-05-06 19:32 | 33.56978 | -117.49403 | 24340 ft | 453 kts | 102° |
| 2026-05-06 19:32 | 33.56078 | -117.45772 | 24668 ft | 454 kts | 102° |
| 2026-05-06 19:32 | 33.55175 | -117.42140 | 24975 ft | 455 kts | 102° |
| 2026-05-06 19:32 | 33.54268 | -117.38493 | 25241 ft | 457 kts | 102° |
| 2026-05-06 19:33 | 33.53354 | -117.34825 | 25546 ft | 459 kts | 102° |
| 2026-05-06 19:33 | 33.52439 | -117.31157 | 25864 ft | 459 kts | 102° |
| 2026-05-06 19:33 | 33.51521 | -117.27481 | 26130 ft | 461 kts | 102° |
| 2026-05-06 19:33 | 33.50626 | -117.23789 | 26383 ft | 461 kts | 99° |
| 2026-05-06 19:34 | 33.50287 | -117.20008 | 26604 ft | 455 kts | 86° |
| 2026-05-06 19:34 | 33.50283 | -117.16266 | 26968 ft | 453 kts | 86° |
| 2026-05-06 19:34 | 33.50280 | -117.12493 | 27388 ft | 451 kts | 86° |
| 2026-05-06 19:34 | 33.50263 | -117.08747 | 27827 ft | 449 kts | 86° |
| 2026-05-06 19:35 | 33.50231 | -117.05018 | 28244 ft | 447 kts | 86° |
| 2026-05-06 19:35 | 33.50188 | -117.01297 | 28602 ft | 446 kts | 86° |
| 2026-05-06 19:35 | 33.50137 | -116.97580 | 29010 ft | 444 kts | 86° |
| 2026-05-06 19:35 | 33.50083 | -116.93887 | 29456 ft | 442 kts | 86° |
| 2026-05-06 19:36 | 33.50026 | -116.90207 | 29885 ft | 440 kts | 86° |
| 2026-05-06 19:36 | 33.49969 | -116.86546 | 30243 ft | 439 kts | 86° |
| 2026-05-06 19:36 | 33.49912 | -116.82895 | 30581 ft | 437 kts | 86° |
| 2026-05-06 19:36 | 33.49856 | -116.79394 | 30931 ft | 435 kts | 86° |
| 2026-05-06 19:37 | 33.49798 | -116.75780 | 31264 ft | 433 kts | 86° |
| 2026-05-06 19:37 | 33.49739 | -116.72165 | 31595 ft | 432 kts | 86° |
| 2026-05-06 19:37 | 33.49679 | -116.68565 | 31941 ft | 430 kts | 86° |
| 2026-05-06 19:37 | 33.49619 | -116.65039 | 32274 ft | 428 kts | 86° |
| 2026-05-06 19:38 | 33.49559 | -116.61477 | 32562 ft | 428 kts | 86° |
| 2026-05-06 19:38 | 33.49497 | -116.57912 | 32853 ft | 427 kts | 86° |
| 2026-05-06 19:38 | 33.49434 | -116.54362 | 33187 ft | 425 kts | 86° |
| 2026-05-06 19:38 | 33.49370 | -116.50824 | 33474 ft | 424 kts | 86° |
| 2026-05-06 19:39 | 33.49306 | -116.47299 | 33703 ft | 423 kts | 86° |
| 2026-05-06 19:39 | 33.49241 | -116.43777 | 34004 ft | 422 kts | 86° |
| 2026-05-06 19:39 | 33.49178 | -116.40263 | 34226 ft | 421 kts | 86° |
| 2026-05-06 19:39 | 33.49125 | -116.36765 | 34414 ft | 420 kts | 86° |
| 2026-05-06 19:40 | 33.49027 | -116.29703 | 34572 ft | 427 kts | 86° |
| 2026-05-06 19:40 | 33.48975 | -116.26136 | 34755 ft | 428 kts | 86° |
| 2026-05-06 19:40 | 33.48920 | -116.22574 | 34955 ft | 428 kts | 86° |
| 2026-05-06 19:41 | 33.48806 | -116.15410 | 35034 ft | 432 kts | 86° |
| 2026-05-06 19:41 | 33.48687 | -116.08280 | 35046 ft | 430 kts | 86° |
| 2026-05-06 19:42 | 33.49144 | -116.01212 | 35051 ft | 417 kts | 69° |
| 2026-05-06 19:42 | 33.51063 | -115.94718 | 35051 ft | 415 kts | 67° |
| 2026-05-06 19:43 | 33.53040 | -115.88221 | 35042 ft | 415 kts | 67° |
| 2026-05-06 19:43 | 33.54974 | -115.81689 | 35054 ft | 416 kts | 68° |
| 2026-05-06 19:44 | 33.56887 | -115.75128 | 35059 ft | 417 kts | 68° |
| 2026-05-06 19:44 | 33.58793 | -115.68570 | 35062 ft | 420 kts | 68° |
| 2026-05-06 19:45 | 33.60725 | -115.61918 | 35056 ft | 422 kts | 68° |
| 2026-05-06 19:45 | 33.61848 | -115.54976 | 35074 ft | 432 kts | 86° |
| 2026-05-06 19:46 | 33.61644 | -115.47736 | 35060 ft | 435 kts | 88° |
| 2026-05-06 19:46 | 33.61397 | -115.40514 | 35057 ft | 436 kts | 88° |
| 2026-05-06 19:47 | 33.61186 | -115.33231 | 35052 ft | 437 kts | 88° |
| 2026-05-06 19:47 | 33.60995 | -115.25940 | 35047 ft | 437 kts | 88° |
| 2026-05-06 19:48 | 33.60805 | -115.18643 | 35046 ft | 437 kts | 88° |
| 2026-05-06 19:48 | 33.60609 | -115.11344 | 35049 ft | 437 kts | 88° |
| 2026-05-06 19:49 | 33.60408 | -115.04041 | 35053 ft | 437 kts | 88° |
| 2026-05-06 19:49 | 33.60204 | -114.96792 | 35057 ft | 437 kts | 88° |
| 2026-05-06 19:50 | 33.59995 | -114.89492 | 35060 ft | 438 kts | 88° |
| 2026-05-06 19:50 | 33.59782 | -114.82195 | 35064 ft | 438 kts | 88° |
| 2026-05-06 19:51 | 33.59557 | -114.74886 | 35066 ft | 439 kts | 89° |
| 2026-05-06 19:51 | 33.59070 | -114.67572 | 35066 ft | 441 kts | 92° |
| 2026-05-06 19:52 | 33.58466 | -114.60285 | 35062 ft | 442 kts | 92° |
| 2026-05-06 19:52 | 33.57873 | -114.52930 | 35064 ft | 444 kts | 92° |
| 2026-05-06 19:53 | 33.57300 | -114.45545 | 35049 ft | 445 kts | 92° |
| 2026-05-06 19:53 | 33.56730 | -114.38122 | 35046 ft | 447 kts | 92° |
| 2026-05-06 19:54 | 33.56158 | -114.30691 | 35054 ft | 448 kts | 92° |
| 2026-05-06 19:54 | 33.55578 | -114.23238 | 35049 ft | 449 kts | 92° |
| 2026-05-06 19:55 | 33.54991 | -114.15763 | 35040 ft | 451 kts | 92° |
| 2026-05-06 19:55 | 33.54397 | -114.08264 | 35044 ft | 452 kts | 93° |
| 2026-05-06 19:56 | 33.53802 | -114.00796 | 34826 ft | 454 kts | 93° |
| 2026-05-06 19:56 | 33.53500 | -113.97033 | 33965 ft | 454 kts | 93° |
| 2026-05-06 19:56 | 33.53195 | -113.93254 | 33182 ft | 455 kts | 93° |
| 2026-05-06 19:57 | 33.52583 | -113.85687 | 33175 ft | 456 kts | 93° |
| 2026-05-06 19:57 | 33.51964 | -113.78100 | 33173 ft | 458 kts | 94° |
| 2026-05-06 19:58 | 33.51339 | -113.70503 | 33169 ft | 459 kts | 94° |
| 2026-05-06 19:58 | 33.50707 | -113.62875 | 33173 ft | 459 kts | 94° |
| 2026-05-06 19:59 | 33.50072 | -113.55274 | 33173 ft | 458 kts | 94° |
| 2026-05-06 19:59 | 33.49540 | -113.48943 | 34978 ft | 458 kts | 94° |
| 2026-05-06 20:00 | 33.48896 | -113.41333 | 34987 ft | 458 kts | 95° |
| 2026-05-06 20:00 | 33.48253 | -113.33781 | 34995 ft | 459 kts | 95° |
| 2026-05-06 20:01 | 33.47599 | -113.26166 | 35019 ft | 460 kts | 95° |
| 2026-05-06 20:01 | 33.46939 | -113.18534 | 35022 ft | 461 kts | 95° |
| 2026-05-06 20:02 | 33.46272 | -113.10873 | 35025 ft | 463 kts | 95° |
| 2026-05-06 20:02 | 33.45599 | -113.03199 | 35028 ft | 464 kts | 95° |
| 2026-05-06 20:03 | 33.44922 | -112.95535 | 35043 ft | 466 kts | 96° |
| 2026-05-06 20:03 | 33.44232 | -112.87785 | 35045 ft | 469 kts | 96° |
| 2026-05-06 20:04 | 33.43584 | -112.80554 | 35061 ft | 471 kts | 96° |
| 2026-05-06 20:04 | 33.42878 | -112.72732 | 35060 ft | 473 kts | 96° |
| 2026-05-06 20:05 | 33.42166 | -112.64887 | 35050 ft | 475 kts | 97° |
| 2026-05-06 20:05 | 33.41444 | -112.57004 | 35050 ft | 476 kts | 97° |
| 2026-05-06 20:06 | 33.40721 | -112.49152 | 35045 ft | 478 kts | 97° |
| 2026-05-06 20:06 | 33.39986 | -112.41233 | 35043 ft | 480 kts | 97° |
| 2026-05-06 20:07 | 33.39244 | -112.33288 | 35045 ft | 481 kts | 97° |
| 2026-05-06 20:07 | 33.38541 | -112.25633 | 35034 ft | 483 kts | 95° |
| 2026-05-06 20:08 | 33.39003 | -112.17607 | 35012 ft | 486 kts | 77° |
| 2026-05-06 20:08 | 33.40653 | -112.09767 | 35025 ft | 487 kts | 76° |
| 2026-05-06 20:09 | 33.42359 | -112.01905 | 35027 ft | 488 kts | 76° |
| 2026-05-06 20:09 | 33.44018 | -111.94026 | 35026 ft | 489 kts | 77° |
| 2026-05-06 20:10 | 33.45649 | -111.86096 | 35032 ft | 490 kts | 77° |
| 2026-05-06 20:10 | 33.47259 | -111.78192 | 35037 ft | 491 kts | 77° |
| 2026-05-06 20:11 | 33.48878 | -111.70224 | 35039 ft | 493 kts | 77° |
| 2026-05-06 20:11 | 33.50499 | -111.62226 | 35032 ft | 494 kts | 77° |
| 2026-05-06 20:12 | 33.52119 | -111.54208 | 35032 ft | 495 kts | 77° |
| 2026-05-06 20:12 | 33.53737 | -111.46174 | 35019 ft | 496 kts | 77° |
| 2026-05-06 20:13 | 33.55351 | -111.38125 | 35012 ft | 497 kts | 77° |
| 2026-05-06 20:13 | 33.56966 | -111.30043 | 35005 ft | 498 kts | 77° |
| 2026-05-06 20:14 | 33.58569 | -111.22001 | 35007 ft | 499 kts | 78° |
| 2026-05-06 20:14 | 33.60181 | -111.13877 | 35006 ft | 500 kts | 78° |
| 2026-05-06 20:15 | 33.61787 | -111.05754 | 35001 ft | 501 kts | 78° |
| 2026-05-06 20:15 | 33.63391 | -110.97609 | 35003 ft | 502 kts | 78° |
| 2026-05-06 20:16 | 33.64995 | -110.89436 | 35000 ft | 503 kts | 78° |
| 2026-05-06 20:16 | 33.66596 | -110.81250 | 34990 ft | 504 kts | 78° |
| 2026-05-06 20:17 | 33.68184 | -110.73094 | 34986 ft | 505 kts | 78° |
| 2026-05-06 20:17 | 33.69780 | -110.64873 | 34984 ft | 505 kts | 78° |
| 2026-05-06 20:18 | 33.71371 | -110.56642 | 34977 ft | 506 kts | 78° |
| 2026-05-06 20:18 | 33.72961 | -110.48386 | 34977 ft | 507 kts | 78° |
| 2026-05-06 20:19 | 33.74534 | -110.40185 | 34981 ft | 507 kts | 78° |
| 2026-05-06 20:19 | 33.76115 | -110.31913 | 34989 ft | 508 kts | 78° |
| 2026-05-06 20:20 | 33.77696 | -110.23609 | 34986 ft | 510 kts | 78° |
| 2026-05-06 20:20 | 33.79275 | -110.15282 | 34978 ft | 511 kts | 79° |
| 2026-05-06 20:21 | 33.80844 | -110.06978 | 34983 ft | 512 kts | 79° |
| 2026-05-06 20:21 | 33.82418 | -109.98614 | 34980 ft | 513 kts | 79° |
| 2026-05-06 20:22 | 33.83990 | -109.90222 | 34981 ft | 515 kts | 79° |
| 2026-05-06 20:22 | 33.85561 | -109.81808 | 34984 ft | 516 kts | 79° |
| 2026-05-06 20:23 | 33.87131 | -109.73365 | 34980 ft | 517 kts | 79° |
| 2026-05-06 20:23 | 33.88700 | -109.64892 | 34979 ft | 519 kts | 79° |
| 2026-05-06 20:24 | 33.90267 | -109.56392 | 35018 ft | 520 kts | 79° |
| 2026-05-06 20:24 | 33.91818 | -109.47944 | 35049 ft | 522 kts | 79° |
| 2026-05-06 20:25 | 33.93385 | -109.39382 | 35080 ft | 523 kts | 79° |
| 2026-05-06 20:25 | 33.94945 | -109.30817 | 35096 ft | 525 kts | 79° |
| 2026-05-06 20:26 | 33.96506 | -109.22208 | 35101 ft | 525 kts | 80° |
| 2026-05-06 20:26 | 33.98050 | -109.13658 | 35069 ft | 526 kts | 80° |
| 2026-05-06 20:27 | 33.99607 | -109.05007 | 35037 ft | 528 kts | 80° |
| 2026-05-06 20:27 | 34.01157 | -108.96355 | 34983 ft | 529 kts | 80° |
| 2026-05-06 20:28 | 34.02707 | -108.87662 | 34953 ft | 531 kts | 80° |
| 2026-05-06 20:28 | 34.04256 | -108.78935 | 34941 ft | 533 kts | 80° |
| 2026-05-06 20:29 | 34.05803 | -108.70186 | 34960 ft | 534 kts | 80° |
| 2026-05-06 20:29 | 34.07348 | -108.61408 | 34943 ft | 535 kts | 80° |
| 2026-05-06 20:30 | 34.09653 | -108.48242 | 34952 ft | 537 kts | 80° |
| 2026-05-06 20:31 | 34.11192 | -108.39415 | 34950 ft | 538 kts | 81° |
| 2026-05-06 20:31 | 34.12724 | -108.30567 | 34956 ft | 539 kts | 81° |
| 2026-05-06 20:32 | 34.14243 | -108.21757 | 34949 ft | 541 kts | 81° |
| 2026-05-06 20:32 | 34.15772 | -108.12835 | 34942 ft | 543 kts | 81° |
| 2026-05-06 20:33 | 34.17302 | -108.03896 | 34952 ft | 544 kts | 81° |
| 2026-05-06 20:33 | 34.18829 | -107.94924 | 34946 ft | 546 kts | 81° |
| 2026-05-06 20:34 | 34.20346 | -107.85976 | 34932 ft | 547 kts | 81° |
| 2026-05-06 20:34 | 34.21865 | -107.76960 | 34933 ft | 548 kts | 81° |
| 2026-05-06 20:35 | 34.23381 | -107.67925 | 34926 ft | 549 kts | 81° |
| 2026-05-06 20:35 | 34.24893 | -107.58873 | 34928 ft | 550 kts | 81° |
| 2026-05-06 20:36 | 34.26401 | -107.49796 | 34919 ft | 551 kts | 82° |
| 2026-05-06 20:36 | 34.27907 | -107.40696 | 34913 ft | 552 kts | 82° |
| 2026-05-06 20:37 | 34.29408 | -107.31578 | 34914 ft | 553 kts | 82° |
| 2026-05-06 20:37 | 34.30904 | -107.22443 | 34893 ft | 554 kts | 82° |
| 2026-05-06 20:38 | 34.32387 | -107.13346 | 34889 ft | 555 kts | 82° |
| 2026-05-06 20:38 | 34.33874 | -107.04175 | 34894 ft | 556 kts | 82° |
| 2026-05-06 20:39 | 34.35358 | -106.94980 | 34897 ft | 557 kts | 82° |
| 2026-05-06 20:39 | 34.36838 | -106.85764 | 34874 ft | 559 kts | 82° |
| 2026-05-06 20:40 | 34.38317 | -106.76516 | 34877 ft | 560 kts | 82° |
| 2026-05-06 20:40 | 34.39916 | -106.67282 | 34877 ft | 563 kts | 76° |
| 2026-05-06 20:41 | 34.42274 | -106.58263 | 34889 ft | 565 kts | 72° |
| 2026-05-06 20:41 | 34.44822 | -106.49249 | 34897 ft | 565 kts | 72° |
| 2026-05-06 20:42 | 34.47318 | -106.40199 | 34911 ft | 566 kts | 73° |
| 2026-05-06 20:42 | 34.49743 | -106.31129 | 34916 ft | 565 kts | 74° |
| 2026-05-06 20:43 | 34.52141 | -106.22049 | 34924 ft | 565 kts | 74° |
| 2026-05-06 20:43 | 34.54539 | -106.12950 | 34928 ft | 565 kts | 74° |
| 2026-05-06 20:44 | 34.56917 | -106.03919 | 34940 ft | 565 kts | 74° |
| 2026-05-06 20:44 | 34.59306 | -105.94824 | 34939 ft | 565 kts | 74° |
| 2026-05-06 20:45 | 34.61690 | -105.85717 | 34945 ft | 566 kts | 74° |
| 2026-05-06 20:45 | 34.64070 | -105.76592 | 34946 ft | 568 kts | 74° |
| 2026-05-06 20:46 | 34.66052 | -105.68966 | 34947 ft | 569 kts | 74° |
| 2026-05-06 20:46 | 34.68821 | -105.58281 | 34938 ft | 570 kts | 74° |
| 2026-05-06 20:47 | 34.70799 | -105.50619 | 34934 ft | 571 kts | 74° |
| 2026-05-06 20:47 | 34.73174 | -105.41391 | 34932 ft | 572 kts | 74° |
| 2026-05-06 20:48 | 34.75547 | -105.32140 | 34913 ft | 573 kts | 74° |
| 2026-05-06 20:48 | 34.77914 | -105.22877 | 34905 ft | 573 kts | 74° |
| 2026-05-06 20:49 | 34.80275 | -105.13608 | 34894 ft | 574 kts | 74° |
| 2026-05-06 20:49 | 34.82631 | -105.04324 | 34879 ft | 574 kts | 75° |
| 2026-05-06 20:50 | 34.84980 | -104.95034 | 34904 ft | 574 kts | 75° |
| 2026-05-06 20:50 | 34.87321 | -104.85741 | 34932 ft | 574 kts | 75° |
| 2026-05-06 20:51 | 34.89640 | -104.76506 | 34974 ft | 574 kts | 75° |
| 2026-05-06 20:51 | 34.91969 | -104.67195 | 34981 ft | 574 kts | 75° |
| 2026-05-06 20:52 | 34.94290 | -104.57881 | 34979 ft | 574 kts | 75° |
| 2026-05-06 20:52 | 34.96606 | -104.48556 | 34958 ft | 575 kts | 75° |
| 2026-05-06 20:53 | 34.98918 | -104.39212 | 34910 ft | 575 kts | 75° |
| 2026-05-06 20:53 | 35.01224 | -104.29855 | 34864 ft | 575 kts | 75° |
| 2026-05-06 20:54 | 35.03523 | -104.20496 | 34853 ft | 576 kts | 75° |
| 2026-05-06 20:54 | 35.05802 | -104.11184 | 34857 ft | 577 kts | 75° |
| 2026-05-06 20:55 | 35.08094 | -104.01782 | 34871 ft | 577 kts | 75° |
| 2026-05-06 20:55 | 35.10380 | -103.92371 | 34919 ft | 577 kts | 75° |
| 2026-05-06 20:56 | 35.12655 | -103.82971 | 34971 ft | 577 kts | 75° |
| 2026-05-06 20:56 | 35.14913 | -103.73600 | 34998 ft | 578 kts | 75° |
| 2026-05-06 20:57 | 35.17181 | -103.64161 | 35019 ft | 578 kts | 76° |
| 2026-05-06 20:57 | 35.19502 | -103.54727 | 35019 ft | 580 kts | 73° |
| 2026-05-06 20:58 | 35.22078 | -103.45370 | 35011 ft | 581 kts | 72° |
| 2026-05-06 20:58 | 35.24712 | -103.36016 | 34997 ft | 582 kts | 72° |
| 2026-05-06 20:59 | 35.27303 | -103.26631 | 34975 ft | 582 kts | 73° |
| 2026-05-06 20:59 | 35.29856 | -103.17215 | 34970 ft | 583 kts | 73° |
| 2026-05-06 21:00 | 35.32396 | -103.07786 | 34970 ft | 583 kts | 73° |
| 2026-05-06 21:00 | 35.34931 | -102.98351 | 34981 ft | 583 kts | 73° |
| 2026-05-06 21:01 | 35.37463 | -102.88913 | 34995 ft | 583 kts | 73° |
| 2026-05-06 21:01 | 35.39974 | -102.79519 | 35002 ft | 584 kts | 73° |
| 2026-05-06 21:02 | 35.42492 | -102.70068 | 34999 ft | 583 kts | 73° |
| 2026-05-06 21:02 | 35.44998 | -102.60626 | 35006 ft | 581 kts | 73° |
| 2026-05-06 21:03 | 35.47487 | -102.51216 | 35023 ft | 579 kts | 73° |
| 2026-05-06 21:03 | 35.49966 | -102.41808 | 35033 ft | 578 kts | 73° |
| 2026-05-06 21:04 | 35.52420 | -102.32463 | 35048 ft | 579 kts | 74° |
| 2026-05-06 21:04 | 35.54885 | -102.23039 | 35063 ft | 579 kts | 74° |
| 2026-05-06 21:05 | 35.57345 | -102.13603 | 35079 ft | 581 kts | 74° |
| 2026-05-06 21:05 | 35.59803 | -102.04141 | 35098 ft | 582 kts | 74° |
| 2026-05-06 21:06 | 35.62266 | -101.94626 | 35098 ft | 584 kts | 74° |
| 2026-05-06 21:06 | 35.64722 | -101.85102 | 35105 ft | 585 kts | 74° |
| 2026-05-06 21:07 | 35.67160 | -101.75615 | 35106 ft | 586 kts | 74° |
| 2026-05-06 21:07 | 35.69609 | -101.66048 | 35109 ft | 586 kts | 74° |
| 2026-05-06 21:08 | 35.72053 | -101.56464 | 35123 ft | 587 kts | 75° |
| 2026-05-06 21:08 | 35.74490 | -101.46874 | 35122 ft | 587 kts | 75° |
| 2026-05-06 21:09 | 35.76919 | -101.37279 | 35120 ft | 587 kts | 75° |
| 2026-05-06 21:09 | 35.79342 | -101.27675 | 35114 ft | 586 kts | 75° |
| 2026-05-06 21:10 | 35.81752 | -101.18085 | 35117 ft | 586 kts | 75° |
| 2026-05-06 21:10 | 35.84139 | -101.08547 | 35117 ft | 585 kts | 75° |
| 2026-05-06 21:11 | 35.86533 | -100.98947 | 35115 ft | 585 kts | 75° |
| 2026-05-06 21:11 | 35.88916 | -100.89353 | 35118 ft | 585 kts | 75° |
| 2026-05-06 21:12 | 35.91291 | -100.79756 | 35120 ft | 585 kts | 75° |
| 2026-05-06 21:12 | 35.93662 | -100.70140 | 35124 ft | 585 kts | 75° |
| 2026-05-06 21:13 | 35.96010 | -100.60579 | 35131 ft | 585 kts | 75° |
| 2026-05-06 21:13 | 35.98363 | -100.50959 | 35135 ft | 585 kts | 75° |
| 2026-05-06 21:14 | 36.00712 | -100.41321 | 35127 ft | 586 kts | 75° |
| 2026-05-06 21:14 | 36.03058 | -100.31658 | 35126 ft | 587 kts | 75° |
| 2026-05-06 21:15 | 36.05399 | -100.21976 | 35127 ft | 587 kts | 75° |
| 2026-05-06 21:15 | 36.07732 | -100.12292 | 35119 ft | 588 kts | 75° |
| 2026-05-06 21:16 | 36.10046 | -100.02645 | 35133 ft | 588 kts | 75° |
| 2026-05-06 21:16 | 36.12366 | -99.92939 | 35133 ft | 589 kts | 75° |
| 2026-05-06 21:17 | 36.14681 | -99.83210 | 35135 ft | 589 kts | 76° |
| 2026-05-06 21:17 | 36.16988 | -99.73480 | 35141 ft | 589 kts | 76° |
| 2026-05-06 21:18 | 36.19291 | -99.63728 | 35134 ft | 589 kts | 76° |
| 2026-05-06 21:18 | 36.21567 | -99.54051 | 35127 ft | 589 kts | 76° |